Estación Meteorológica Peña el Pijo (Robertgarden) [ 08/17/18 05:40:58 CEST ]

Fecha Hora Presion(HPa) Temp (°C) Humedad % Rocio (°C) Viento ( m/s) Direccion Lluvia 1Hora(mm) Lluvia 24H(mm) LLuvia Total(mm)
2018-Jun-26 01:01:47 1012.000 17.3 66 10.9         266.25
2018-Jun-26 02:01:29 1011.600 16.4 69 10.7         266.25
2018-Jun-26 03:06:06 1011.600 15.3 71 10.1         266.25
2018-Jun-26 04:01:48 1011.300 14.9 74 10.3         266.25
2018-Jun-26 05:01:51 1011.000 14.2 74 9.6         266.25
2018-Jun-26 06:01:31 1010.900 13.6 77 9.6         266.25
2018-Jun-26 07:01:54 1011.400 13.1 79 9.5         266.25
2018-Jun-26 08:01:31 1011.700 14.8 82 11.8         266.25
2018-Jun-26 09:01:52 1011.800 20.3 73 15.3         266.25
2018-Jun-26 10:01:57 1011.700 25.4 57 16.2         266.25
2018-Jun-26 11:01:48 1011.500 28.1 48 16.0         266.25
2018-Jun-26 12:01:42 1011.300 32.2 42 17.6         266.25
2018-Jun-26 13:01:38 1010.900 34.1 35 16.3         266.25
2018-Jun-26 14:01:50 1010.600 34.8 32 15.6 2.1 W     266.25
2018-Jun-26 15:01:53 1010.100 35.4 24 11.5         266.25
2018-Jun-26 16:01:54 1010.100 32.5 34 14.5         266.25
2018-Jun-26 17:01:40 1009.700 36.3 25 12.9         266.25
2018-Jun-26 18:01:55 1009.700 34.8 25 11.6 0.8 S     266.25
2018-Jun-26 19:01:36 1009.900 30.1 33 12.0         266.25
2018-Jun-26 20:01:40 1010.500 30.3 35 13.0         266.25
2018-Jun-26 21:01:39 1010.900 26.4 46 13.8         266.25
2018-Jun-26 22:01:40 1011.600 24.1 48 12.4         266.25
2018-Jun-26 23:01:47 1012.100 21.6 51 11.1         266.25

Temperatura Máxima:36°    Temperatura Mínima:13°
Presión Máxima:1012.100 Hpa    Presión Mínima:1009.700 Hpa


Volver